SIN weather

Singapore Changi Airport
Singapore, South East, Singapore

Public forecast

Using degrees Celsius for public forecast. Weather courtesy of forecast.io.

METAR (pilot weather report)

Retrieved 2018/04/22 04:30 UTC (0 seconds ago):

WSSS 220430Z 02004KT 320V130 9999 FEW018TCU SCT020 BKN300 33/25 Q1009 NOSIG

TAF (pilot weather forecast)

Forecast is more than 12 hours old.

Retrieved 2018/04/21 06:13 UTC (22 hours ago):

TAF WSSS 210500Z 2106/2212 02007KT 9999 FEW018CB SCT020 TEMPO 2106/2110 3000 TSRA FEW012CB BKN015